sensor_id;sensor_type;location;lat;lon;timestamp;temperature;humidity
8914;DHT22;4492;48.736;9.092;2023-04-07T00:01:51;4.90;99.90
8914;DHT22;4492;48.736;9.092;2023-04-07T00:04:16;4.90;99.90
8914;DHT22;4492;48.736;9.092;2023-04-07T00:06:42;4.90;99.90
8914;DHT22;4492;48.736;9.092;2023-04-07T00:09:08;4.80;99.90
8914;DHT22;4492;48.736;9.092;2023-04-07T00:11:35;4.80;99.90
8914;DHT22;4492;48.736;9.092;2023-04-07T00:14:00;4.80;99.90
8914;DHT22;4492;48.736;9.092;2023-04-07T00:16:26;4.80;99.90
8914;DHT22;4492;48.736;9.092;2023-04-07T00:18:51;4.80;99.90
8914;DHT22;4492;48.736;9.092;2023-04-07T00:21:17;4.80;99.90
8914;DHT22;4492;48.736;9.092;2023-04-07T00:23:42;4.80;99.90
8914;DHT22;4492;48.736;9.092;2023-04-07T00:26:08;4.80;99.90
8914;DHT22;4492;48.736;9.092;2023-04-07T00:28:34;4.90;99.90
8914;DHT22;4492;48.736;9.092;2023-04-07T00:30:59;4.80;99.90
8914;DHT22;4492;48.736;9.092;2023-04-07T00:33:25;4.90;99.90
8914;DHT22;4492;48.736;9.092;2023-04-07T00:35:51;4.90;99.90
8914;DHT22;4492;48.736;9.092;2023-04-07T00:38:18;4.90;99.90
8914;DHT22;4492;48.736;9.092;2023-04-07T00:40:44;4.90;99.90
8914;DHT22;4492;48.736;9.092;2023-04-07T00:43:10;4.90;99.90
8914;DHT22;4492;48.736;9.092;2023-04-07T00:45:36;4.90;99.90
8914;DHT22;4492;48.736;9.092;2023-04-07T00:48:02;4.80;99.90
8914;DHT22;4492;48.736;9.092;2023-04-07T00:50:28;4.80;99.90
8914;DHT22;4492;48.736;9.092;2023-04-07T00:52:54;4.80;99.90
8914;DHT22;4492;48.736;9.092;2023-04-07T00:55:21;4.80;99.90
8914;DHT22;4492;48.736;9.092;2023-04-07T00:57:47;4.80;99.90
8914;DHT22;4492;48.736;9.092;2023-04-07T01:00:12;4.80;99.90
8914;DHT22;4492;48.736;9.092;2023-04-07T01:02:54;4.80;99.90
8914;DHT22;4492;48.736;9.092;2023-04-07T01:05:41;4.70;99.90
8914;DHT22;4492;48.736;9.092;2023-04-07T01:08:19;4.70;99.90
8914;DHT22;4492;48.736;9.092;2023-04-07T01:11:07;4.80;99.90
8914;DHT22;4492;48.736;9.092;2023-04-07T01:13:50;4.70;99.90
8914;DHT22;4492;48.736;9.092;2023-04-07T01:16:22;4.70;99.90
8914;DHT22;4492;48.736;9.092;2023-04-07T01:18:51;4.70;99.90
8914;DHT22;4492;48.736;9.092;2023-04-07T01:21:19;4.70;99.90
8914;DHT22;4492;48.736;9.092;2023-04-07T01:26:40;4.70;99.90
8914;DHT22;4492;48.736;9.092;2023-04-07T01:31:38;4.70;99.90
8914;DHT22;4492;48.736;9.092;2023-04-07T01:34:05;4.60;99.90
8914;DHT22;4492;48.736;9.092;2023-04-07T01:36:32;4.50;99.90
8914;DHT22;4492;48.736;9.092;2023-04-07T01:38:58;4.60;99.90
8914;DHT22;4492;48.736;9.092;2023-04-07T01:41:24;4.60;99.90
8914;DHT22;4492;48.736;9.092;2023-04-07T01:43:52;4.60;99.90
8914;DHT22;4492;48.736;9.092;2023-04-07T01:46:18;4.60;99.90
8914;DHT22;4492;48.736;9.092;2023-04-07T01:48:45;4.60;99.90
8914;DHT22;4492;48.736;9.092;2023-04-07T01:51:12;4.60;99.90
8914;DHT22;4492;48.736;9.092;2023-04-07T01:53:42;4.60;99.90
8914;DHT22;4492;48.736;9.092;2023-04-07T01:56:08;4.60;99.90
8914;DHT22;4492;48.736;9.092;2023-04-07T01:58:33;4.60;99.90
8914;DHT22;4492;48.736;9.092;2023-04-07T02:00:59;4.60;99.90
8914;DHT22;4492;48.736;9.092;2023-04-07T02:06:19;4.70;99.90
8914;DHT22;4492;48.736;9.092;2023-04-07T02:08:55;4.70;99.90
8914;DHT22;4492;48.736;9.092;2023-04-07T02:11:22;4.70;99.90
8914;DHT22;4492;48.736;9.092;2023-04-07T02:13:51;4.70;99.90
8914;DHT22;4492;48.736;9.092;2023-04-07T02:16:17;4.70;99.90
8914;DHT22;4492;48.736;9.092;2023-04-07T02:18:45;4.70;99.90
8914;DHT22;4492;48.736;9.092;2023-04-07T02:21:12;4.80;99.90
8914;DHT22;4492;48.736;9.092;2023-04-07T02:23:39;4.80;99.90
8914;DHT22;4492;48.736;9.092;2023-04-07T02:26:05;4.80;99.90
8914;DHT22;4492;48.736;9.092;2023-04-07T02:28:30;4.90;99.90
8914;DHT22;4492;48.736;9.092;2023-04-07T02:30:56;4.90;99.90
8914;DHT22;4492;48.736;9.092;2023-04-07T02:33:22;4.90;99.90
8914;DHT22;4492;48.736;9.092;2023-04-07T02:35:47;4.90;99.90
8914;DHT22;4492;48.736;9.092;2023-04-07T02:38:13;4.90;99.90
8914;DHT22;4492;48.736;9.092;2023-04-07T02:40:38;4.90;99.90
8914;DHT22;4492;48.736;9.092;2023-04-07T02:43:04;4.90;99.90
8914;DHT22;4492;48.736;9.092;2023-04-07T02:45:30;4.90;99.90
8914;DHT22;4492;48.736;9.092;2023-04-07T02:47:55;4.90;99.90
8914;DHT22;4492;48.736;9.092;2023-04-07T02:50:21;4.90;99.90
8914;DHT22;4492;48.736;9.092;2023-04-07T02:52:47;4.90;99.90
8914;DHT22;4492;48.736;9.092;2023-04-07T02:55:12;4.90;99.90
8914;DHT22;4492;48.736;9.092;2023-04-07T02:57:38;4.90;99.90
8914;DHT22;4492;48.736;9.092;2023-04-07T03:00:04;4.90;99.90
8914;DHT22;4492;48.736;9.092;2023-04-07T03:02:29;4.80;99.90
8914;DHT22;4492;48.736;9.092;2023-04-07T03:04:55;4.80;99.90
8914;DHT22;4492;48.736;9.092;2023-04-07T03:07:21;5.00;99.90
8914;DHT22;4492;48.736;9.092;2023-04-07T03:09:46;4.90;99.90
8914;DHT22;4492;48.736;9.092;2023-04-07T03:12:12;4.90;99.90
8914;DHT22;4492;48.736;9.092;2023-04-07T03:14:37;4.90;99.90
8914;DHT22;4492;48.736;9.092;2023-04-07T03:17:03;4.90;99.90
8914;DHT22;4492;48.736;9.092;2023-04-07T03:19:29;5.00;99.90
8914;DHT22;4492;48.736;9.092;2023-04-07T03:21:54;5.00;99.90
8914;DHT22;4492;48.736;9.092;2023-04-07T03:24:20;5.00;99.90
8914;DHT22;4492;48.736;9.092;2023-04-07T03:26:46;5.00;99.90
8914;DHT22;4492;48.736;9.092;2023-04-07T03:29:12;5.00;99.90
8914;DHT22;4492;48.736;9.092;2023-04-07T03:31:37;5.00;99.90
8914;DHT22;4492;48.736;9.092;2023-04-07T03:34:03;5.00;99.90
8914;DHT22;4492;48.736;9.092;2023-04-07T03:36:29;5.00;99.90
8914;DHT22;4492;48.736;9.092;2023-04-07T03:38:56;5.00;99.90
8914;DHT22;4492;48.736;9.092;2023-04-07T03:41:21;5.00;99.90
8914;DHT22;4492;48.736;9.092;2023-04-07T03:43:47;5.00;99.90
8914;DHT22;4492;48.736;9.092;2023-04-07T03:46:13;5.00;99.90
8914;DHT22;4492;48.736;9.092;2023-04-07T03:48:38;5.10;99.90
8914;DHT22;4492;48.736;9.092;2023-04-07T03:51:04;5.00;99.90
8914;DHT22;4492;48.736;9.092;2023-04-07T03:53:29;5.00;99.90
8914;DHT22;4492;48.736;9.092;2023-04-07T03:55:55;5.00;99.90
8914;DHT22;4492;48.736;9.092;2023-04-07T03:58:21;5.00;99.90
8914;DHT22;4492;48.736;9.092;2023-04-07T04:00:46;5.00;99.90
8914;DHT22;4492;48.736;9.092;2023-04-07T04:03:12;5.00;99.90
8914;DHT22;4492;48.736;9.092;2023-04-07T04:05:37;5.00;99.90
8914;DHT22;4492;48.736;9.092;2023-04-07T04:08:03;5.00;99.90
8914;DHT22;4492;48.736;9.092;2023-04-07T04:10:28;5.00;99.90
8914;DHT22;4492;48.736;9.092;2023-04-07T04:12:54;5.00;99.90
8914;DHT22;4492;48.736;9.092;2023-04-07T04:15:20;4.90;99.90
8914;DHT22;4492;48.736;9.092;2023-04-07T04:17:45;4.90;99.90
8914;DHT22;4492;48.736;9.092;2023-04-07T04:20:11;4.90;99.90
8914;DHT22;4492;48.736;9.092;2023-04-07T04:22:36;4.90;99.90
8914;DHT22;4492;48.736;9.092;2023-04-07T04:25:02;4.90;99.90
8914;DHT22;4492;48.736;9.092;2023-04-07T04:27:28;4.90;99.90
8914;DHT22;4492;48.736;9.092;2023-04-07T04:29:54;4.90;99.90
8914;DHT22;4492;48.736;9.092;2023-04-07T04:32:19;4.90;99.90
8914;DHT22;4492;48.736;9.092;2023-04-07T04:34:45;4.80;99.90
8914;DHT22;4492;48.736;9.092;2023-04-07T04:37:11;4.80;99.90
8914;DHT22;4492;48.736;9.092;2023-04-07T04:39:36;4.80;99.90
8914;DHT22;4492;48.736;9.092;2023-04-07T04:42:02;4.80;99.90
8914;DHT22;4492;48.736;9.092;2023-04-07T04:44:28;4.80;99.90
8914;DHT22;4492;48.736;9.092;2023-04-07T04:46:54;4.80;99.90
8914;DHT22;4492;48.736;9.092;2023-04-07T04:49:20;4.80;99.90
8914;DHT22;4492;48.736;9.092;2023-04-07T04:51:46;4.70;99.90
8914;DHT22;4492;48.736;9.092;2023-04-07T04:54:11;4.70;99.90
8914;DHT22;4492;48.736;9.092;2023-04-07T04:56:37;4.70;99.90
8914;DHT22;4492;48.736;9.092;2023-04-07T04:59:03;4.70;99.90
8914;DHT22;4492;48.736;9.092;2023-04-07T05:01:29;4.70;99.90
8914;DHT22;4492;48.736;9.092;2023-04-07T05:03:55;4.70;99.90
8914;DHT22;4492;48.736;9.092;2023-04-07T05:06:21;4.70;99.90
8914;DHT22;4492;48.736;9.092;2023-04-07T05:08:46;4.70;99.90
8914;DHT22;4492;48.736;9.092;2023-04-07T05:11:12;4.70;99.90
8914;DHT22;4492;48.736;9.092;2023-04-07T05:13:37;4.70;99.90
8914;DHT22;4492;48.736;9.092;2023-04-07T05:16:04;4.80;99.90
8914;DHT22;4492;48.736;9.092;2023-04-07T05:18:29;4.70;99.90
8914;DHT22;4492;48.736;9.092;2023-04-07T05:20:55;4.70;99.90
8914;DHT22;4492;48.736;9.092;2023-04-07T05:23:20;4.70;99.90
8914;DHT22;4492;48.736;9.092;2023-04-07T05:25:46;4.80;99.90
8914;DHT22;4492;48.736;9.092;2023-04-07T05:28:12;4.80;99.90
8914;DHT22;4492;48.736;9.092;2023-04-07T05:30:37;4.80;99.90
8914;DHT22;4492;48.736;9.092;2023-04-07T05:33:03;4.80;99.90
8914;DHT22;4492;48.736;9.092;2023-04-07T05:35:28;4.90;99.90
8914;DHT22;4492;48.736;9.092;2023-04-07T05:37:54;4.90;99.90
8914;DHT22;4492;48.736;9.092;2023-04-07T05:40:19;4.90;99.90
8914;DHT22;4492;48.736;9.092;2023-04-07T05:42:45;5.00;99.90
8914;DHT22;4492;48.736;9.092;2023-04-07T05:45:10;5.00;99.90
8914;DHT22;4492;48.736;9.092;2023-04-07T05:47:36;5.00;99.90
8914;DHT22;4492;48.736;9.092;2023-04-07T05:50:02;5.10;99.90
8914;DHT22;4492;48.736;9.092;2023-04-07T05:52:27;5.20;99.90
8914;DHT22;4492;48.736;9.092;2023-04-07T05:54:53;5.20;99.90
8914;DHT22;4492;48.736;9.092;2023-04-07T05:57:18;5.30;99.90
8914;DHT22;4492;48.736;9.092;2023-04-07T05:59:44;5.30;99.90
8914;DHT22;4492;48.736;9.092;2023-04-07T06:02:10;5.40;99.90
8914;DHT22;4492;48.736;9.092;2023-04-07T06:04:35;5.50;99.90
8914;DHT22;4492;48.736;9.092;2023-04-07T06:07:02;5.50;99.90
8914;DHT22;4492;48.736;9.092;2023-04-07T06:09:27;5.60;99.90
8914;DHT22;4492;48.736;9.092;2023-04-07T06:11:53;5.60;99.90
8914;DHT22;4492;48.736;9.092;2023-04-07T06:14:18;5.70;99.90
8914;DHT22;4492;48.736;9.092;2023-04-07T06:16:44;5.80;99.90
8914;DHT22;4492;48.736;9.092;2023-04-07T06:19:10;5.90;99.90
8914;DHT22;4492;48.736;9.092;2023-04-07T06:21:35;6.00;99.90
8914;DHT22;4492;48.736;9.092;2023-04-07T06:24:01;6.10;99.90
8914;DHT22;4492;48.736;9.092;2023-04-07T06:26:26;6.20;99.90
8914;DHT22;4492;48.736;9.092;2023-04-07T06:28:52;6.20;99.90
8914;DHT22;4492;48.736;9.092;2023-04-07T06:31:18;6.30;99.90
8914;DHT22;4492;48.736;9.092;2023-04-07T06:33:44;6.30;99.90
8914;DHT22;4492;48.736;9.092;2023-04-07T06:36:10;6.40;99.90
8914;DHT22;4492;48.736;9.092;2023-04-07T06:38:37;6.50;99.90
8914;DHT22;4492;48.736;9.092;2023-04-07T06:41:02;6.50;99.90
8914;DHT22;4492;48.736;9.092;2023-04-07T06:43:29;6.60;99.90
8914;DHT22;4492;48.736;9.092;2023-04-07T06:45:54;6.60;99.90
8914;DHT22;4492;48.736;9.092;2023-04-07T06:48:20;6.70;99.90
8914;DHT22;4492;48.736;9.092;2023-04-07T06:50:48;6.80;99.90
8914;DHT22;4492;48.736;9.092;2023-04-07T06:53:13;6.80;99.90
8914;DHT22;4492;48.736;9.092;2023-04-07T06:55:39;6.90;99.90
8914;DHT22;4492;48.736;9.092;2023-04-07T06:58:04;6.90;99.90
8914;DHT22;4492;48.736;9.092;2023-04-07T07:00:30;6.90;99.90
8914;DHT22;4492;48.736;9.092;2023-04-07T07:02:56;6.80;99.90
8914;DHT22;4492;48.736;9.092;2023-04-07T07:05:22;6.80;99.90
8914;DHT22;4492;48.736;9.092;2023-04-07T07:07:48;6.70;99.90
8914;DHT22;4492;48.736;9.092;2023-04-07T07:10:14;6.70;99.90
8914;DHT22;4492;48.736;9.092;2023-04-07T07:12:39;6.60;99.90
8914;DHT22;4492;48.736;9.092;2023-04-07T07:15:06;6.60;99.90
8914;DHT22;4492;48.736;9.092;2023-04-07T07:17:32;6.60;99.90
8914;DHT22;4492;48.736;9.092;2023-04-07T07:19:57;6.60;99.90
8914;DHT22;4492;48.736;9.092;2023-04-07T07:22:23;6.60;99.90
8914;DHT22;4492;48.736;9.092;2023-04-07T07:24:48;6.60;99.90
8914;DHT22;4492;48.736;9.092;2023-04-07T07:27:14;6.70;99.90
8914;DHT22;4492;48.736;9.092;2023-04-07T07:29:40;6.70;99.90
8914;DHT22;4492;48.736;9.092;2023-04-07T07:32:05;6.70;99.90
8914;DHT22;4492;48.736;9.092;2023-04-07T07:34:32;6.60;99.90
8914;DHT22;4492;48.736;9.092;2023-04-07T07:36:57;6.60;99.90
8914;DHT22;4492;48.736;9.092;2023-04-07T07:39:24;6.60;99.90
8914;DHT22;4492;48.736;9.092;2023-04-07T07:41:50;6.60;99.90
8914;DHT22;4492;48.736;9.092;2023-04-07T07:44:15;6.60;99.90
8914;DHT22;4492;48.736;9.092;2023-04-07T07:46:41;6.60;99.90
8914;DHT22;4492;48.736;9.092;2023-04-07T07:49:06;6.60;99.90
8914;DHT22;4492;48.736;9.092;2023-04-07T07:51:32;6.70;99.90
8914;DHT22;4492;48.736;9.092;2023-04-07T07:53:57;6.80;99.90
8914;DHT22;4492;48.736;9.092;2023-04-07T07:56:23;7.00;99.90
8914;DHT22;4492;48.736;9.092;2023-04-07T07:58:49;7.00;99.90
8914;DHT22;4492;48.736;9.092;2023-04-07T08:01:15;7.00;99.90
8914;DHT22;4492;48.736;9.092;2023-04-07T08:03:41;7.10;99.90
8914;DHT22;4492;48.736;9.092;2023-04-07T08:06:06;7.30;99.90
8914;DHT22;4492;48.736;9.092;2023-04-07T08:08:33;7.50;99.90
8914;DHT22;4492;48.736;9.092;2023-04-07T08:10:59;7.80;99.90
8914;DHT22;4492;48.736;9.092;2023-04-07T08:13:25;8.10;99.90
8914;DHT22;4492;48.736;9.092;2023-04-07T08:15:51;8.40;99.90
8914;DHT22;4492;48.736;9.092;2023-04-07T08:18:16;8.80;99.90
8914;DHT22;4492;48.736;9.092;2023-04-07T08:20:42;9.10;99.90
8914;DHT22;4492;48.736;9.092;2023-04-07T08:23:08;9.50;99.90
8914;DHT22;4492;48.736;9.092;2023-04-07T08:25:33;10.00;99.90
8914;DHT22;4492;48.736;9.092;2023-04-07T08:27:59;10.50;99.90
8914;DHT22;4492;48.736;9.092;2023-04-07T08:30:24;10.70;99.90
8914;DHT22;4492;48.736;9.092;2023-04-07T08:32:50;10.70;99.90
8914;DHT22;4492;48.736;9.092;2023-04-07T08:35:16;10.70;99.90
8914;DHT22;4492;48.736;9.092;2023-04-07T08:37:41;10.80;99.90
8914;DHT22;4492;48.736;9.092;2023-04-07T08:40:08;10.70;99.90
8914;DHT22;4492;48.736;9.092;2023-04-07T08:42:39;10.60;99.90
8914;DHT22;4492;48.736;9.092;2023-04-07T08:45:06;10.60;99.90
8914;DHT22;4492;48.736;9.092;2023-04-07T08:47:33;10.70;99.90
8914;DHT22;4492;48.736;9.092;2023-04-07T08:50:10;10.70;99.90
8914;DHT22;4492;48.736;9.092;2023-04-07T08:52:49;10.50;99.90
8914;DHT22;4492;48.736;9.092;2023-04-07T08:55:17;10.50;99.90
8914;DHT22;4492;48.736;9.092;2023-04-07T08:57:43;10.40;99.90
8914;DHT22;4492;48.736;9.092;2023-04-07T09:00:09;10.30;99.90
8914;DHT22;4492;48.736;9.092;2023-04-07T09:02:38;10.30;99.90
8914;DHT22;4492;48.736;9.092;2023-04-07T09:05:06;10.30;99.90
8914;DHT22;4492;48.736;9.092;2023-04-07T09:07:34;10.50;99.90
8914;DHT22;4492;48.736;9.092;2023-04-07T09:10:00;10.70;99.90
8914;DHT22;4492;48.736;9.092;2023-04-07T09:12:29;10.90;99.90
8914;DHT22;4492;48.736;9.092;2023-04-07T09:14:56;11.10;99.90
8914;DHT22;4492;48.736;9.092;2023-04-07T09:17:21;11.20;99.90
8914;DHT22;4492;48.736;9.092;2023-04-07T09:19:51;11.20;99.90
8914;DHT22;4492;48.736;9.092;2023-04-07T09:22:40;11.20;99.90
8914;DHT22;4492;48.736;9.092;2023-04-07T09:25:20;11.10;99.90
8914;DHT22;4492;48.736;9.092;2023-04-07T09:30:19;11.00;99.90
8914;DHT22;4492;48.736;9.092;2023-04-07T09:32:45;10.90;99.90
8914;DHT22;4492;48.736;9.092;2023-04-07T09:35:11;11.10;99.90
8914;DHT22;4492;48.736;9.092;2023-04-07T09:37:36;11.40;99.90
8914;DHT22;4492;48.736;9.092;2023-04-07T09:40:02;11.80;99.60
8914;DHT22;4492;48.736;9.092;2023-04-07T09:42:28;12.30;99.60
8914;DHT22;4492;48.736;9.092;2023-04-07T09:44:59;12.90;99.30
8914;DHT22;4492;48.736;9.092;2023-04-07T09:47:30;13.40;97.40
8914;DHT22;4492;48.736;9.092;2023-04-07T09:49:56;13.70;97.00
8914;DHT22;4492;48.736;9.092;2023-04-07T09:52:25;13.90;96.50
8914;DHT22;4492;48.736;9.092;2023-04-07T09:55:10;14.20;95.80
8914;DHT22;4492;48.736;9.092;2023-04-07T09:57:37;14.10;94.00
8914;DHT22;4492;48.736;9.092;2023-04-07T10:00:04;14.10;93.90
8914;DHT22;4492;48.736;9.092;2023-04-07T10:02:30;14.20;95.80
8914;DHT22;4492;48.736;9.092;2023-04-07T10:04:57;14.10;96.10
8914;DHT22;4492;48.736;9.092;2023-04-07T10:07:23;14.00;97.10
8914;DHT22;4492;48.736;9.092;2023-04-07T10:09:48;13.70;97.10
8914;DHT22;4492;48.736;9.092;2023-04-07T10:12:14;13.10;96.90
8914;DHT22;4492;48.736;9.092;2023-04-07T10:14:40;11.90;99.90
8914;DHT22;4492;48.736;9.092;2023-04-07T10:17:11;10.70;99.90
8914;DHT22;4492;48.736;9.092;2023-04-07T10:19:43;9.90;99.90
8914;DHT22;4492;48.736;9.092;2023-04-07T10:22:10;9.10;99.90
8914;DHT22;4492;48.736;9.092;2023-04-07T10:24:53;8.80;99.90
8914;DHT22;4492;48.736;9.092;2023-04-07T10:27:28;8.60;99.90
8914;DHT22;4492;48.736;9.092;2023-04-07T10:29:55;8.40;99.90
8914;DHT22;4492;48.736;9.092;2023-04-07T10:32:22;8.40;99.90
8914;DHT22;4492;48.736;9.092;2023-04-07T10:37:21;8.30;99.90
8914;DHT22;4492;48.736;9.092;2023-04-07T10:39:50;8.30;99.90
8914;DHT22;4492;48.736;9.092;2023-04-07T10:45:00;8.60;99.90
8914;DHT22;4492;48.736;9.092;2023-04-07T10:47:26;8.70;99.90
8914;DHT22;4492;48.736;9.092;2023-04-07T10:52:36;8.90;99.90
8914;DHT22;4492;48.736;9.092;2023-04-07T10:55:28;8.90;99.90
8914;DHT22;4492;48.736;9.092;2023-04-07T11:00:38;9.00;99.90
8914;DHT22;4492;48.736;9.092;2023-04-07T11:03:12;9.10;99.90
8914;DHT22;4492;48.736;9.092;2023-04-07T11:05:42;9.30;99.90
8914;DHT22;4492;48.736;9.092;2023-04-07T11:08:07;9.10;99.90
8914;DHT22;4492;48.736;9.092;2023-04-07T11:10:34;9.10;99.90
8914;DHT22;4492;48.736;9.092;2023-04-07T11:13:05;9.10;99.90
8914;DHT22;4492;48.736;9.092;2023-04-07T11:15:31;9.00;99.90
8914;DHT22;4492;48.736;9.092;2023-04-07T11:20:52;8.90;99.90
8914;DHT22;4492;48.736;9.092;2023-04-07T11:23:22;8.80;99.90
8914;DHT22;4492;48.736;9.092;2023-04-07T11:25:50;8.80;99.90
8914;DHT22;4492;48.736;9.092;2023-04-07T11:28:17;8.80;99.90
8914;DHT22;4492;48.736;9.092;2023-04-07T11:30:48;8.90;99.90
8914;DHT22;4492;48.736;9.092;2023-04-07T11:33:24;9.00;99.90
8914;DHT22;4492;48.736;9.092;2023-04-07T11:36:01;9.10;99.90
8914;DHT22;4492;48.736;9.092;2023-04-07T11:38:37;9.20;99.90
8914;DHT22;4492;48.736;9.092;2023-04-07T11:41:11;9.10;99.90
8914;DHT22;4492;48.736;9.092;2023-04-07T11:43:37;9.10;99.90
8914;DHT22;4492;48.736;9.092;2023-04-07T11:46:13;9.00;99.90
8914;DHT22;4492;48.736;9.092;2023-04-07T11:48:41;8.90;99.90
8914;DHT22;4492;48.736;9.092;2023-04-07T11:51:15;8.80;99.90
8914;DHT22;4492;48.736;9.092;2023-04-07T11:53:41;8.60;99.90
8914;DHT22;4492;48.736;9.092;2023-04-07T11:56:11;8.40;99.90
8914;DHT22;4492;48.736;9.092;2023-04-07T11:58:51;8.20;99.90
8914;DHT22;4492;48.736;9.092;2023-04-07T12:01:17;7.80;99.90
8914;DHT22;4492;48.736;9.092;2023-04-07T12:04:00;7.60;99.90
8914;DHT22;4492;48.736;9.092;2023-04-07T12:06:31;7.40;99.90
8914;DHT22;4492;48.736;9.092;2023-04-07T12:09:03;7.30;99.90
8914;DHT22;4492;48.736;9.092;2023-04-07T12:11:29;7.20;99.90
8914;DHT22;4492;48.736;9.092;2023-04-07T12:13:56;7.20;99.90
8914;DHT22;4492;48.736;9.092;2023-04-07T12:16:22;7.30;99.90
8914;DHT22;4492;48.736;9.092;2023-04-07T12:18:48;7.40;99.90
8914;DHT22;4492;48.736;9.092;2023-04-07T12:21:16;7.60;99.90
8914;DHT22;4492;48.736;9.092;2023-04-07T12:23:41;7.80;99.90
8914;DHT22;4492;48.736;9.092;2023-04-07T12:26:07;7.80;99.90
8914;DHT22;4492;48.736;9.092;2023-04-07T12:28:33;7.80;99.90
8914;DHT22;4492;48.736;9.092;2023-04-07T12:30:58;7.80;99.90
8914;DHT22;4492;48.736;9.092;2023-04-07T12:33:24;7.80;99.90
8914;DHT22;4492;48.736;9.092;2023-04-07T12:35:49;7.80;99.90
8914;DHT22;4492;48.736;9.092;2023-04-07T12:38:16;7.80;99.90
8914;DHT22;4492;48.736;9.092;2023-04-07T12:40:41;7.80;99.90
8914;DHT22;4492;48.736;9.092;2023-04-07T12:43:08;7.90;99.90
8914;DHT22;4492;48.736;9.092;2023-04-07T12:45:33;8.00;99.90
8914;DHT22;4492;48.736;9.092;2023-04-07T12:47:59;8.20;99.90
8914;DHT22;4492;48.736;9.092;2023-04-07T12:50:24;8.30;99.90
8914;DHT22;4492;48.736;9.092;2023-04-07T12:52:51;8.40;99.90
8914;DHT22;4492;48.736;9.092;2023-04-07T12:55:17;8.40;99.90
8914;DHT22;4492;48.736;9.092;2023-04-07T12:57:43;8.40;99.90
8914;DHT22;4492;48.736;9.092;2023-04-07T13:00:09;8.30;99.90
8914;DHT22;4492;48.736;9.092;2023-04-07T13:02:35;8.30;99.90
8914;DHT22;4492;48.736;9.092;2023-04-07T13:05:03;8.30;99.90
8914;DHT22;4492;48.736;9.092;2023-04-07T13:07:30;8.30;99.90
8914;DHT22;4492;48.736;9.092;2023-04-07T13:09:55;8.30;99.90
8914;DHT22;4492;48.736;9.092;2023-04-07T13:12:21;8.40;99.90
8914;DHT22;4492;48.736;9.092;2023-04-07T13:14:47;8.40;99.90
8914;DHT22;4492;48.736;9.092;2023-04-07T13:17:13;8.40;99.90
8914;DHT22;4492;48.736;9.092;2023-04-07T13:19:38;8.40;99.90
8914;DHT22;4492;48.736;9.092;2023-04-07T13:22:04;8.50;99.90
8914;DHT22;4492;48.736;9.092;2023-04-07T13:24:31;8.40;99.90
8914;DHT22;4492;48.736;9.092;2023-04-07T13:26:56;8.50;99.90
8914;DHT22;4492;48.736;9.092;2023-04-07T13:29:22;8.50;99.90
8914;DHT22;4492;48.736;9.092;2023-04-07T13:31:48;8.50;99.90
8914;DHT22;4492;48.736;9.092;2023-04-07T13:34:14;8.50;99.90
8914;DHT22;4492;48.736;9.092;2023-04-07T13:36:40;8.50;99.90
8914;DHT22;4492;48.736;9.092;2023-04-07T13:39:06;8.50;99.90
8914;DHT22;4492;48.736;9.092;2023-04-07T13:41:32;8.60;99.90
8914;DHT22;4492;48.736;9.092;2023-04-07T13:43:59;8.70;99.90
8914;DHT22;4492;48.736;9.092;2023-04-07T13:46:25;8.70;99.90
8914;DHT22;4492;48.736;9.092;2023-04-07T13:48:51;8.80;99.90
8914;DHT22;4492;48.736;9.092;2023-04-07T13:51:17;8.90;99.90
8914;DHT22;4492;48.736;9.092;2023-04-07T13:53:43;8.80;99.90
8914;DHT22;4492;48.736;9.092;2023-04-07T13:56:08;8.80;99.90
8914;DHT22;4492;48.736;9.092;2023-04-07T13:58:35;8.70;99.90
8914;DHT22;4492;48.736;9.092;2023-04-07T14:01:01;8.80;99.90
8914;DHT22;4492;48.736;9.092;2023-04-07T14:03:27;8.80;99.90
8914;DHT22;4492;48.736;9.092;2023-04-07T14:05:53;8.90;99.90
8914;DHT22;4492;48.736;9.092;2023-04-07T14:08:20;8.90;99.90
8914;DHT22;4492;48.736;9.092;2023-04-07T14:10:48;9.00;99.90
8914;DHT22;4492;48.736;9.092;2023-04-07T14:13:13;9.00;99.90
8914;DHT22;4492;48.736;9.092;2023-04-07T14:15:39;9.00;99.90
8914;DHT22;4492;48.736;9.092;2023-04-07T14:18:04;9.10;99.90
8914;DHT22;4492;48.736;9.092;2023-04-07T14:20:31;9.20;99.90
8914;DHT22;4492;48.736;9.092;2023-04-07T14:22:57;9.20;99.90
8914;DHT22;4492;48.736;9.092;2023-04-07T14:25:22;9.30;99.90
8914;DHT22;4492;48.736;9.092;2023-04-07T14:27:48;9.30;99.90
8914;DHT22;4492;48.736;9.092;2023-04-07T14:30:13;9.40;99.90
8914;DHT22;4492;48.736;9.092;2023-04-07T14:32:39;9.40;99.90
8914;DHT22;4492;48.736;9.092;2023-04-07T14:35:05;9.40;99.90
8914;DHT22;4492;48.736;9.092;2023-04-07T14:37:30;9.50;99.90
8914;DHT22;4492;48.736;9.092;2023-04-07T14:39:56;9.50;99.90
8914;DHT22;4492;48.736;9.092;2023-04-07T14:42:22;9.50;99.90
8914;DHT22;4492;48.736;9.092;2023-04-07T14:44:48;9.50;99.90
8914;DHT22;4492;48.736;9.092;2023-04-07T14:47:13;9.50;99.90
8914;DHT22;4492;48.736;9.092;2023-04-07T14:49:39;9.50;99.90
8914;DHT22;4492;48.736;9.092;2023-04-07T14:52:04;9.60;99.90
8914;DHT22;4492;48.736;9.092;2023-04-07T14:54:30;9.60;99.90
8914;DHT22;4492;48.736;9.092;2023-04-07T14:56:55;9.60;99.90
8914;DHT22;4492;48.736;9.092;2023-04-07T14:59:21;9.70;99.90
8914;DHT22;4492;48.736;9.092;2023-04-07T15:01:46;9.80;99.90
8914;DHT22;4492;48.736;9.092;2023-04-07T15:04:12;9.90;99.90
8914;DHT22;4492;48.736;9.092;2023-04-07T15:06:41;10.00;99.90
8914;DHT22;4492;48.736;9.092;2023-04-07T15:09:08;10.00;99.90
8914;DHT22;4492;48.736;9.092;2023-04-07T15:11:33;10.20;99.90
8914;DHT22;4492;48.736;9.092;2023-04-07T15:13:59;10.20;99.90
8914;DHT22;4492;48.736;9.092;2023-04-07T15:16:25;10.20;99.90
8914;DHT22;4492;48.736;9.092;2023-04-07T15:18:50;10.30;99.90
8914;DHT22;4492;48.736;9.092;2023-04-07T15:21:16;10.30;99.90
8914;DHT22;4492;48.736;9.092;2023-04-07T15:23:42;10.30;99.90
8914;DHT22;4492;48.736;9.092;2023-04-07T15:26:09;10.40;99.90
8914;DHT22;4492;48.736;9.092;2023-04-07T15:28:34;10.20;99.90
8914;DHT22;4492;48.736;9.092;2023-04-07T15:31:00;10.30;99.90
8914;DHT22;4492;48.736;9.092;2023-04-07T15:33:26;10.40;99.90
8914;DHT22;4492;48.736;9.092;2023-04-07T15:35:52;10.50;99.90
8914;DHT22;4492;48.736;9.092;2023-04-07T15:38:17;10.60;99.90
8914;DHT22;4492;48.736;9.092;2023-04-07T15:40:43;10.70;99.90
8914;DHT22;4492;48.736;9.092;2023-04-07T15:43:09;10.80;99.90
8914;DHT22;4492;48.736;9.092;2023-04-07T15:45:42;10.80;99.90
8914;DHT22;4492;48.736;9.092;2023-04-07T15:48:09;10.80;99.90
8914;DHT22;4492;48.736;9.092;2023-04-07T15:50:35;10.70;99.90
8914;DHT22;4492;48.736;9.092;2023-04-07T15:53:04;10.70;99.90
8914;DHT22;4492;48.736;9.092;2023-04-07T15:55:33;10.60;99.90
8914;DHT22;4492;48.736;9.092;2023-04-07T15:58:00;10.40;99.90
8914;DHT22;4492;48.736;9.092;2023-04-07T16:00:27;10.40;99.90
8914;DHT22;4492;48.736;9.092;2023-04-07T16:02:53;10.40;99.90
8914;DHT22;4492;48.736;9.092;2023-04-07T16:05:19;10.30;99.90
8914;DHT22;4492;48.736;9.092;2023-04-07T16:07:45;10.20;99.90
8914;DHT22;4492;48.736;9.092;2023-04-07T16:10:10;10.20;99.90
8914;DHT22;4492;48.736;9.092;2023-04-07T16:12:37;10.10;99.90
8914;DHT22;4492;48.736;9.092;2023-04-07T16:15:04;10.10;99.90
8914;DHT22;4492;48.736;9.092;2023-04-07T16:17:29;10.10;99.90
8914;DHT22;4492;48.736;9.092;2023-04-07T16:19:55;10.10;99.90
8914;DHT22;4492;48.736;9.092;2023-04-07T16:22:20;10.10;99.90
8914;DHT22;4492;48.736;9.092;2023-04-07T16:24:46;10.10;99.90
8914;DHT22;4492;48.736;9.092;2023-04-07T16:27:11;10.00;99.90
8914;DHT22;4492;48.736;9.092;2023-04-07T16:29:37;10.00;99.90
8914;DHT22;4492;48.736;9.092;2023-04-07T16:32:02;9.90;99.90
8914;DHT22;4492;48.736;9.092;2023-04-07T16:34:29;9.90;99.90
8914;DHT22;4492;48.736;9.092;2023-04-07T16:36:55;9.90;99.90